sensor_id;sensor_type;location;lat;lon;timestamp;pressure;altitude;pressure_sealevel;temperature;humidity
21449;BME280;10885;52.830;13.788;2023-05-09T05:11:41;101999.00;;;8.54;56.11
21449;BME280;10885;52.830;13.788;2023-05-09T05:17:07;101986.97;;;8.83;55.94
21449;BME280;10885;52.830;13.788;2023-05-09T05:22:29;101989.06;;;8.97;54.77
21449;BME280;10885;52.830;13.788;2023-05-09T05:27:51;101982.19;;;9.16;54.91
21449;BME280;10885;52.830;13.788;2023-05-09T05:33:12;101983.50;;;9.42;54.19
21449;BME280;10885;52.830;13.788;2023-05-09T05:38:33;101978.41;;;9.52;52.72
21449;BME280;10885;52.830;13.788;2023-05-09T05:43:55;101985.31;;;9.74;52.62
21449;BME280;10885;52.830;13.788;2023-05-09T05:49:16;101970.19;;;9.87;51.25
21449;BME280;10885;52.830;13.788;2023-05-09T05:54:38;101984.03;;;9.89;51.53
21449;BME280;10885;52.830;13.788;2023-05-09T05:59:59;101984.34;;;10.14;52.29
21449;BME280;10885;52.830;13.788;2023-05-09T06:05:21;101982.69;;;10.25;49.61
21449;BME280;10885;52.830;13.788;2023-05-09T06:10:43;101986.25;;;10.38;49.63
21449;BME280;10885;52.830;13.788;2023-05-09T06:16:05;101965.19;;;10.52;48.78
21449;BME280;10885;52.830;13.788;2023-05-09T06:21:35;101968.91;;;10.78;47.53
21449;BME280;10885;52.830;13.788;2023-05-09T06:26:56;101961.59;;;11.04;47.16
21449;BME280;10885;52.830;13.788;2023-05-09T06:32:17;101947.94;;;11.27;46.64
21449;BME280;10885;52.830;13.788;2023-05-09T06:37:39;101966.22;;;11.54;45.01
21449;BME280;10885;52.830;13.788;2023-05-09T06:43:00;101947.38;;;11.65;44.72
21449;BME280;10885;52.830;13.788;2023-05-09T06:48:21;101922.63;;;12.13;43.18
21449;BME280;10885;52.830;13.788;2023-05-09T06:53:43;101922.50;;;13.09;41.89
21449;BME280;10885;52.830;13.788;2023-05-09T06:59:04;101911.09;;;12.80;40.77
21449;BME280;10885;52.830;13.788;2023-05-09T07:04:25;101908.53;;;13.30;39.47
21449;BME280;10885;52.830;13.788;2023-05-09T07:09:46;101912.84;;;13.57;38.56
21449;BME280;10885;52.830;13.788;2023-05-09T07:15:09;101895.66;;;13.96;37.22
21449;BME280;10885;52.830;13.788;2023-05-09T07:20:31;101897.41;;;14.37;36.42
21449;BME280;10885;52.830;13.788;2023-05-09T07:25:56;101884.69;;;15.39;34.16
21449;BME280;10885;52.830;13.788;2023-05-09T07:31:18;101879.03;;;17.54;30.43
21449;BME280;10885;52.830;13.788;2023-05-09T07:36:39;101861.22;;;20.16;25.57
21449;BME280;10885;52.830;13.788;2023-05-09T07:42:00;101843.38;;;20.27;24.95
21449;BME280;10885;52.830;13.788;2023-05-09T07:47:21;101855.09;;;18.88;27.07
21449;BME280;10885;52.830;13.788;2023-05-09T07:52:43;101839.50;;;17.94;28.66
21449;BME280;10885;52.830;13.788;2023-05-09T07:58:04;101815.00;;;19.02;28.66
21449;BME280;10885;52.830;13.788;2023-05-09T08:03:25;101805.31;;;18.02;29.27
21449;BME280;10885;52.830;13.788;2023-05-09T08:08:47;101810.22;;;17.78;29.39
21449;BME280;10885;52.830;13.788;2023-05-09T08:14:08;101801.59;;;17.07;29.50
21449;BME280;10885;52.830;13.788;2023-05-09T08:19:29;101782.66;;;17.98;29.29
21449;BME280;10885;52.830;13.788;2023-05-09T08:24:50;101784.66;;;18.04;28.99
21449;BME280;10885;52.830;13.788;2023-05-09T08:30:11;101780.44;;;18.64;27.91
21449;BME280;10885;52.830;13.788;2023-05-09T08:35:32;101791.34;;;17.99;28.66
21449;BME280;10885;52.830;13.788;2023-05-09T08:40:59;101788.66;;;18.35;28.53
21449;BME280;10885;52.830;13.788;2023-05-09T08:46:29;101784.75;;;19.04;27.64
21449;BME280;10885;52.830;13.788;2023-05-09T08:51:51;101760.25;;;18.00;28.57
21449;BME280;10885;52.830;13.788;2023-05-09T08:57:13;101751.66;;;19.65;26.96
21449;BME280;10885;52.830;13.788;2023-05-09T09:02:35;101763.78;;;18.01;29.19
21449;BME280;10885;52.830;13.788;2023-05-09T09:07:57;101752.44;;;17.81;29.87
21449;BME280;10885;52.830;13.788;2023-05-09T09:13:19;101785.63;;;16.82;30.81
21449;BME280;10885;52.830;13.788;2023-05-09T09:18:41;101756.25;;;17.16;30.22
21449;BME280;10885;52.830;13.788;2023-05-09T09:24:03;101755.56;;;17.02;29.91
21449;BME280;10885;52.830;13.788;2023-05-09T09:29:26;101730.25;;;17.50;30.55
21449;BME280;10885;52.830;13.788;2023-05-09T09:34:48;101741.78;;;17.93;28.30
21449;BME280;10885;52.830;13.788;2023-05-09T09:40:11;101723.97;;;18.20;28.45
21449;BME280;10885;52.830;13.788;2023-05-09T09:45:35;101717.69;;;17.95;28.82
21449;BME280;10885;52.830;13.788;2023-05-09T09:51:02;101714.44;;;18.20;29.84
21449;BME280;10885;52.830;13.788;2023-05-09T09:56:37;101712.69;;;18.19;29.87
21449;BME280;10885;52.830;13.788;2023-05-09T10:02:05;101698.75;;;18.37;30.48
21449;BME280;10885;52.830;13.788;2023-05-09T10:07:32;101687.19;;;18.90;28.99
21449;BME280;10885;52.830;13.788;2023-05-09T10:12:56;101690.09;;;19.65;27.79
21449;BME280;10885;52.830;13.788;2023-05-09T10:18:21;101682.31;;;19.43;27.45
21449;BME280;10885;52.830;13.788;2023-05-09T10:23:47;101681.38;;;19.18;28.75
21449;BME280;10885;52.830;13.788;2023-05-09T10:29:11;101667.31;;;19.58;28.02
21449;BME280;10885;52.830;13.788;2023-05-09T10:34:33;101660.91;;;19.26;28.50
21449;BME280;10885;52.830;13.788;2023-05-09T10:40:00;101652.00;;;19.66;27.29
21449;BME280;10885;52.830;13.788;2023-05-09T10:45:22;101655.13;;;19.57;27.01
21449;BME280;10885;52.830;13.788;2023-05-09T10:50:44;101641.16;;;19.54;27.00
21449;BME280;10885;52.830;13.788;2023-05-09T10:56:06;101637.47;;;19.48;27.81
21449;BME280;10885;52.830;13.788;2023-05-09T11:01:32;101622.88;;;19.52;26.39
21449;BME280;10885;52.830;13.788;2023-05-09T11:06:55;101611.63;;;20.00;26.77
21449;BME280;10885;52.830;13.788;2023-05-09T11:12:19;101618.22;;;19.90;26.98
21449;BME280;10885;52.830;13.788;2023-05-09T11:17:41;101629.66;;;19.95;25.77
21449;BME280;10885;52.830;13.788;2023-05-09T11:23:03;101593.81;;;19.86;25.87
21449;BME280;10885;52.830;13.788;2023-05-09T11:28:30;101597.00;;;20.29;24.55
21449;BME280;10885;52.830;13.788;2023-05-09T11:34:00;101587.59;;;19.83;25.37
21449;BME280;10885;52.830;13.788;2023-05-09T11:39:24;101568.41;;;19.79;25.67
21449;BME280;10885;52.830;13.788;2023-05-09T11:44:45;101556.19;;;19.77;25.67
21449;BME280;10885;52.830;13.788;2023-05-09T11:50:09;101542.38;;;20.31;25.29
21449;BME280;10885;52.830;13.788;2023-05-09T11:55:31;101538.16;;;19.35;25.75
21449;BME280;10885;52.830;13.788;2023-05-09T12:00:53;101539.34;;;19.43;25.90
21449;BME280;10885;52.830;13.788;2023-05-09T12:06:17;101521.50;;;20.02;23.82
21449;BME280;10885;52.830;13.788;2023-05-09T12:11:49;101511.22;;;24.27;20.36
21449;BME280;10885;52.830;13.788;2023-05-09T12:17:10;101507.38;;;23.57;20.05
21449;BME280;10885;52.830;13.788;2023-05-09T12:22:32;101486.75;;;21.75;23.07
21449;BME280;10885;52.830;13.788;2023-05-09T12:27:53;101497.25;;;20.86;23.46
21449;BME280;10885;52.830;13.788;2023-05-09T12:33:14;101464.59;;;20.69;24.14
21449;BME280;10885;52.830;13.788;2023-05-09T12:38:35;101455.97;;;20.70;24.69
21449;BME280;10885;52.830;13.788;2023-05-09T12:43:57;101455.63;;;20.59;24.28
21449;BME280;10885;52.830;13.788;2023-05-09T12:49:19;101456.50;;;20.88;24.42
21449;BME280;10885;52.830;13.788;2023-05-09T12:54:45;101445.78;;;20.50;24.83
21449;BME280;10885;52.830;13.788;2023-05-09T13:00:07;101449.44;;;20.84;23.91
21449;BME280;10885;52.830;13.788;2023-05-09T13:05:30;101425.03;;;20.24;24.35
21449;BME280;10885;52.830;13.788;2023-05-09T13:10:51;101403.47;;;20.57;24.31
21449;BME280;10885;52.830;13.788;2023-05-09T13:16:15;101417.06;;;20.76;23.69
21449;BME280;10885;52.830;13.788;2023-05-09T13:21:37;101403.13;;;20.74;23.79
21449;BME280;10885;52.830;13.788;2023-05-09T13:26:58;101386.72;;;20.49;24.28
21449;BME280;10885;52.830;13.788;2023-05-09T13:32:19;101396.66;;;20.32;24.25
21449;BME280;10885;52.830;13.788;2023-05-09T13:37:40;101373.34;;;20.08;22.73
21449;BME280;10885;52.830;13.788;2023-05-09T13:43:01;101367.53;;;19.88;24.46
21449;BME280;10885;52.830;13.788;2023-05-09T13:48:23;101355.69;;;20.26;23.94
21449;BME280;10885;52.830;13.788;2023-05-09T13:53:44;101355.25;;;20.70;24.18
21449;BME280;10885;52.830;13.788;2023-05-09T13:59:05;101346.72;;;20.17;23.58
21449;BME280;10885;52.830;13.788;2023-05-09T14:04:28;101356.03;;;20.37;23.93
21449;BME280;10885;52.830;13.788;2023-05-09T14:09:50;101327.63;;;20.46;22.86
21449;BME280;10885;52.830;13.788;2023-05-09T14:15:14;101324.91;;;20.42;23.20
21449;BME280;10885;52.830;13.788;2023-05-09T14:20:35;101327.19;;;20.31;24.09
21449;BME280;10885;52.830;13.788;2023-05-09T14:25:57;101301.38;;;20.09;24.17
21449;BME280;10885;52.830;13.788;2023-05-09T14:31:18;101301.69;;;20.19;24.31
21449;BME280;10885;52.830;13.788;2023-05-09T14:36:39;101268.47;;;20.73;23.48
21449;BME280;10885;52.830;13.788;2023-05-09T14:42:00;101273.03;;;20.80;23.36
21449;BME280;10885;52.830;13.788;2023-05-09T14:47:22;101272.22;;;20.82;23.40
21449;BME280;10885;52.830;13.788;2023-05-09T14:52:43;101267.09;;;21.20;23.61
21449;BME280;10885;52.830;13.788;2023-05-09T14:58:04;101258.59;;;20.61;24.04
21449;BME280;10885;52.830;13.788;2023-05-09T15:03:26;101244.34;;;20.48;24.63
21449;BME280;10885;52.830;13.788;2023-05-09T15:08:47;101253.50;;;20.64;24.85
21449;BME280;10885;52.830;13.788;2023-05-09T15:14:09;101234.09;;;20.22;24.47
21449;BME280;10885;52.830;13.788;2023-05-09T15:19:29;101232.72;;;20.05;25.09
21449;BME280;10885;52.830;13.788;2023-05-09T15:24:51;101218.47;;;20.54;26.09
21449;BME280;10885;52.830;13.788;2023-05-09T15:30:13;101216.47;;;20.12;26.06
21449;BME280;10885;52.830;13.788;2023-05-09T15:35:34;101213.38;;;20.25;24.93
21449;BME280;10885;52.830;13.788;2023-05-09T15:40:56;101206.25;;;20.20;25.12
21449;BME280;10885;52.830;13.788;2023-05-09T15:46:17;101194.63;;;20.39;25.08
21449;BME280;10885;52.830;13.788;2023-05-09T15:51:39;101186.28;;;19.89;26.57
21449;BME280;10885;52.830;13.788;2023-05-09T15:57:00;101180.72;;;20.38;26.62
21449;BME280;10885;52.830;13.788;2023-05-09T16:02:22;101168.94;;;20.19;27.08
21449;BME280;10885;52.830;13.788;2023-05-09T16:07:44;101174.38;;;20.29;26.97
21449;BME280;10885;52.830;13.788;2023-05-09T16:13:06;101150.16;;;20.31;27.47
21449;BME280;10885;52.830;13.788;2023-05-09T16:18:27;101164.63;;;19.61;26.84
21449;BME280;10885;52.830;13.788;2023-05-09T16:23:49;101144.00;;;19.67;27.29
21449;BME280;10885;52.830;13.788;2023-05-09T16:29:09;101148.44;;;19.41;28.08
21449;BME280;10885;52.830;13.788;2023-05-09T16:34:33;101143.00;;;19.62;27.56
21449;BME280;10885;52.830;13.788;2023-05-09T16:39:55;101135.41;;;19.39;27.49
21449;BME280;10885;52.830;13.788;2023-05-09T16:45:16;101138.47;;;19.26;28.16
21449;BME280;10885;52.830;13.788;2023-05-09T16:50:37;101152.09;;;19.19;28.11
21449;BME280;10885;52.830;13.788;2023-05-09T16:55:58;101146.75;;;18.87;28.25
21449;BME280;10885;52.830;13.788;2023-05-09T17:01:19;101138.34;;;18.94;28.56
21449;BME280;10885;52.830;13.788;2023-05-09T17:06:40;101134.91;;;18.95;29.00
21449;BME280;10885;52.830;13.788;2023-05-09T17:12:01;101133.88;;;18.64;29.92
21449;BME280;10885;52.830;13.788;2023-05-09T17:17:23;101129.91;;;18.48;30.28
21449;BME280;10885;52.830;13.788;2023-05-09T17:22:43;101124.25;;;18.36;30.40
21449;BME280;10885;52.830;13.788;2023-05-09T17:28:04;101128.09;;;18.22;30.67
21449;BME280;10885;52.830;13.788;2023-05-09T17:33:26;101123.34;;;18.10;31.10
21449;BME280;10885;52.830;13.788;2023-05-09T17:38:47;101116.72;;;17.93;31.13
21449;BME280;10885;52.830;13.788;2023-05-09T17:44:08;101117.84;;;17.54;31.86
21449;BME280;10885;52.830;13.788;2023-05-09T17:49:28;101117.47;;;17.43;32.52
21449;BME280;10885;52.830;13.788;2023-05-09T17:54:50;101116.09;;;17.53;32.46
21449;BME280;10885;52.830;13.788;2023-05-09T18:00:11;101105.78;;;17.32;32.89
21449;BME280;10885;52.830;13.788;2023-05-09T18:05:34;101107.63;;;17.12;33.52
21449;BME280;10885;52.830;13.788;2023-05-09T18:10:55;101108.00;;;17.00;33.89
21449;BME280;10885;52.830;13.788;2023-05-09T18:16:17;101097.88;;;16.84;34.19
21449;BME280;10885;52.830;13.788;2023-05-09T18:21:38;101102.97;;;16.82;34.34
21449;BME280;10885;52.830;13.788;2023-05-09T18:26:59;101102.16;;;16.62;34.90
21449;BME280;10885;52.830;13.788;2023-05-09T18:32:20;101094.69;;;16.49;35.08
21449;BME280;10885;52.830;13.788;2023-05-09T18:37:41;101091.81;;;16.41;35.36
21449;BME280;10885;52.830;13.788;2023-05-09T18:43:02;101096.88;;;16.19;36.17
21449;BME280;10885;52.830;13.788;2023-05-09T18:48:24;101091.25;;;16.08;36.17
21449;BME280;10885;52.830;13.788;2023-05-09T18:53:46;101094.38;;;16.01;36.82
21449;BME280;10885;52.830;13.788;2023-05-09T18:59:07;101088.72;;;15.70;37.27
21449;BME280;10885;52.830;13.788;2023-05-09T19:04:31;101092.88;;;15.67;37.66
21449;BME280;10885;52.830;13.788;2023-05-09T19:09:53;101090.69;;;15.57;38.02
21449;BME280;10885;52.830;13.788;2023-05-09T19:15:14;101090.25;;;15.47;38.61
21449;BME280;10885;52.830;13.788;2023-05-09T19:20:35;101085.50;;;15.37;39.31
21449;BME280;10885;52.830;13.788;2023-05-09T19:25:56;101082.16;;;15.20;39.52
21449;BME280;10885;52.830;13.788;2023-05-09T19:31:17;101083.25;;;15.07;39.45
21449;BME280;10885;52.830;13.788;2023-05-09T19:36:40;101079.19;;;15.13;39.69
21449;BME280;10885;52.830;13.788;2023-05-09T19:42:01;101074.25;;;14.99;40.06
21449;BME280;10885;52.830;13.788;2023-05-09T19:47:22;101076.06;;;14.82;40.48
21449;BME280;10885;52.830;13.788;2023-05-09T19:52:43;101079.94;;;14.74;40.24
21449;BME280;10885;52.830;13.788;2023-05-09T19:58:04;101063.75;;;14.59;40.33
21449;BME280;10885;52.830;13.788;2023-05-09T20:03:26;101056.06;;;14.60;40.24
21449;BME280;10885;52.830;13.788;2023-05-09T20:08:47;101053.41;;;14.59;40.25
21449;BME280;10885;52.830;13.788;2023-05-09T20:14:10;101062.50;;;14.52;40.15
21449;BME280;10885;52.830;13.788;2023-05-09T20:19:31;101057.56;;;14.39;39.72
21449;BME280;10885;52.830;13.788;2023-05-09T20:24:53;101055.66;;;14.35;39.90
21449;BME280;10885;52.830;13.788;2023-05-09T20:30:14;101057.97;;;14.30;39.91
21449;BME280;10885;52.830;13.788;2023-05-09T20:35:37;101059.28;;;14.22;40.35
21449;BME280;10885;52.830;13.788;2023-05-09T20:41:00;101040.69;;;14.27;40.07
21449;BME280;10885;52.830;13.788;2023-05-09T20:46:21;101033.22;;;14.16;40.62
21449;BME280;10885;52.830;13.788;2023-05-09T20:51:42;101037.75;;;14.03;41.04
21449;BME280;10885;52.830;13.788;2023-05-09T20:57:03;101032.03;;;13.92;41.08
21449;BME280;10885;52.830;13.788;2023-05-09T21:02:24;101024.31;;;13.92;41.37
21449;BME280;10885;52.830;13.788;2023-05-09T21:07:45;101026.13;;;13.77;42.05
21449;BME280;10885;52.830;13.788;2023-05-09T21:13:07;101009.63;;;13.73;41.89
21449;BME280;10885;52.830;13.788;2023-05-09T21:18:28;101012.78;;;13.51;42.63
